Time;durP1;ratioP1;P1;durP2;ratioP2;P2;SDS_P1;SDS_P2;PMS_P1;PMS_P2;Temp;Humidity;BMP_temperature;BMP_pressure;BME280_temperature;BME280_humidity;BME280_pressure;Samples;Min_cycle;Max_cycle;Signal;HPM_P1;HPM_P2
2022/02/17 00:00:37;;;;;;;5.53;1.53;;;;;;;;;;5119067;28;20871;-72
2022/02/17 00:03:06;;;;;;;4.30;1.20;;;;;;;;;;5104412;28;20448;-72
2022/02/17 00:05:33;;;;;;;5.17;1.37;;;;;;;;;;5116780;28;20913;-73
2022/02/17 00:08:01;;;;;;;7.30;1.70;;;;;;;;;;5117318;28;20455;-73
2022/02/17 00:10:29;;;;;;;5.57;1.00;;;;;;;;;;5117674;28;20458;-72
2022/02/17 00:12:58;;;;;;;4.67;2.07;;;;;;;;;;5117378;28;20788;-72
2022/02/17 00:15:27;;;;;;;7.93;1.30;;;;;;;;;;5117870;28;20727;-72
2022/02/17 00:17:56;;;;;;;7.03;1.53;;;;;;;;;;5117739;28;20602;-72
2022/02/17 00:20:27;;;;;;;5.73;1.27;;;;;;;;;;5117098;28;20882;-72
2022/02/17 00:22:54;;;;;;;6.73;2.30;;;;;;;;;;5095643;28;20553;-73
2022/02/17 00:25:22;;;;;;;7.70;1.50;;;;;;;;;;5130696;27;20449;-72
2022/02/17 00:27:50;;;;;;;9.03;1.70;;;;;;;;;;5129961;27;20722;-73
2022/02/17 00:30:18;;;;;;;5.27;1.47;;;;;;;;;;5107512;28;20479;-73
2022/02/17 00:32:47;;;;;;;7.90;1.90;;;;;;;;;;5117589;27;20579;-72
2022/02/17 00:35:15;;;;;;;10.90;3.30;;;;;;;;;;5129479;27;20854;-73
2022/02/17 00:37:42;;;;;;;6.57;1.60;;;;;;;;;;5118544;27;20865;-72
2022/02/17 00:40:10;;;;;;;6.23;2.70;;;;;;;;;;5115699;28;20454;-73
2022/02/17 00:42:38;;;;;;;6.53;2.47;;;;;;;;;;5101872;28;20455;-73
2022/02/17 00:45:08;;;;;;;11.37;3.00;;;;;;;;;;5118617;28;20874;-72
2022/02/17 00:47:36;;;;;;;9.40;2.23;;;;;;;;;;5107436;28;20487;-73
2022/02/17 00:50:05;;;;;;;6.93;1.63;;;;;;;;;;5115901;28;20524;-73
2022/02/17 00:52:33;;;;;;;6.10;1.40;;;;;;;;;;5116861;28;20575;-72
2022/02/17 00:55:01;;;;;;;8.13;1.87;;;;;;;;;;5100766;28;20459;-72
2022/02/17 00:57:28;;;;;;;8.47;1.87;;;;;;;;;;5117504;28;20455;-72
2022/02/17 00:59:56;;;;;;;11.33;1.87;;;;;;;;;;5109040;28;20533;-73
2022/02/17 01:02:24;;;;;;;4.93;1.73;;;;;;;;;;5117036;28;20475;-73
2022/02/17 01:04:51;;;;;;;7.70;1.80;;;;;;;;;;5116518;28;20878;-73
2022/02/17 01:07:21;;;;;;;5.47;1.50;;;;;;;;;;5117308;28;20463;-73
2022/02/17 01:09:48;;;;;;;6.03;2.17;;;;;;;;;;5115721;28;20462;-73
2022/02/17 01:12:19;;;;;;;7.77;2.10;;;;;;;;;;5117420;28;20515;-74
2022/02/17 01:14:47;;;;;;;6.37;3.00;;;;;;;;;;5116656;28;20494;-72
2022/02/17 01:17:15;;;;;;;139.60;73.93;;;;;;;;;;5111321;28;21031;-73
2022/02/17 01:19:42;;;;;;;4.27;3.30;;;;;;;;;;5119890;27;20444;-74
2022/02/17 01:22:12;;;;;;;6.67;1.30;;;;;;;;;;5111607;28;20452;-73
2022/02/17 01:24:41;;;;;;;10.80;2.60;;;;;;;;;;5121099;27;20518;-73
2022/02/17 01:27:09;;;;;;;13.10;2.53;;;;;;;;;;5137192;27;20441;-73
2022/02/17 01:29:36;;;;;;;6.57;3.00;;;;;;;;;;5121940;27;20465;-73
2022/02/17 01:32:04;;;;;;;6.00;1.70;;;;;;;;;;5115159;28;20521;-73
2022/02/17 01:34:32;;;;;;;9.30;1.67;;;;;;;;;;5116803;28;20563;-73
2022/02/17 01:37:00;;;;;;;267.43;100.80;;;;;;;;;;5098512;28;20529;-73
2022/02/17 01:39:27;;;;;;;17.53;3.77;;;;;;;;;;5105169;28;20817;-73
2022/02/17 01:41:57;;;;;;;8.00;2.40;;;;;;;;;;5116028;28;20926;-74
2022/02/17 01:44:24;;;;;;;217.47;92.53;;;;;;;;;;5134985;27;20510;-74
2022/02/17 01:46:52;;;;;;;8.90;2.43;;;;;;;;;;5136545;27;20552;-73
2022/02/17 01:49:20;;;;;;;7.73;2.00;;;;;;;;;;5128692;27;20458;-73
2022/02/17 01:51:48;;;;;;;7.33;2.20;;;;;;;;;;5121332;27;20872;-73
2022/02/17 01:54:17;;;;;;;10.20;2.57;;;;;;;;;;5129326;27;20577;-73
2022/02/17 01:56:45;;;;;;;7.13;2.43;;;;;;;;;;5115916;28;20455;-73
2022/02/17 01:59:14;;;;;;;9.70;1.90;;;;;;;;;;5115760;28;20458;-73
2022/02/17 02:01:42;;;;;;;7.10;1.77;;;;;;;;;;5117005;28;20919;-72
2022/02/17 02:04:12;;;;;;;7.00;2.03;;;;;;;;;;5111892;28;20462;-74
2022/02/17 02:06:40;;;;;;;9.47;2.53;;;;;;;;;;5093560;28;20455;-73
2022/02/17 02:09:09;;;;;;;9.13;2.50;;;;;;;;;;5100811;28;20964;-73
2022/02/17 02:11:40;;;;;;;3.43;0.90;;;;;;;;;;5115673;28;20460;-73
2022/02/17 02:14:16;;;;;;;205.37;86.80;;;;;;;;;;5115874;28;20547;-72
2022/02/17 02:16:44;;;;;;;222.63;71.43;;;;;;;;;;5115889;28;20462;-73
2022/02/17 02:19:12;;;;;;;9.60;6.53;;;;;;;;;;5115180;28;20964;-73
2022/02/17 02:21:41;;;;;;;195.20;76.10;;;;;;;;;;5102416;28;20456;-73
2022/02/17 02:24:09;;;;;;;203.43;78.20;;;;;;;;;;5102830;28;20764;-73
2022/02/17 02:26:37;;;;;;;111.47;61.30;;;;;;;;;;5111296;28;20928;-73
2022/02/17 02:29:05;;;;;;;169.67;81.97;;;;;;;;;;5116341;28;20754;-74
2022/02/17 02:31:34;;;;;;;102.20;70.07;;;;;;;;;;5118988;27;20519;-73
2022/02/17 02:34:03;;;;;;;142.73;72.57;;;;;;;;;;5115342;28;20479;-73
2022/02/17 02:36:30;;;;;;;105.47;69.23;;;;;;;;;;5099736;28;20472;-74
2022/02/17 02:39:05;;;;;;;134.50;71.77;;;;;;;;;;5115693;28;20450;-74
2022/02/17 02:41:33;;;;;;;182.87;74.23;;;;;;;;;;5116080;28;20477;-75
2022/02/17 02:44:01;;;;;;;255.70;90.60;;;;;;;;;;5114999;28;20482;-74
2022/02/17 02:46:28;;;;;;;256.10;94.47;;;;;;;;;;5114248;28;20472;-74
2022/02/17 02:48:56;;;;;;;265.70;101.73;;;;;;;;;;5114833;28;20461;-74
2022/02/17 02:51:24;;;;;;;311.63;113.57;;;;;;;;;;5105907;28;20466;-74
2022/02/17 02:53:52;;;;;;;300.50;92.30;;;;;;;;;;5114434;28;20483;-75
2022/02/17 02:56:22;;;;;;;207.70;88.17;;;;;;;;;;5115557;27;20454;-73
2022/02/17 02:58:50;;;;;;;331.40;85.07;;;;;;;;;;5115916;28;20462;-74
2022/02/17 03:01:20;;;;;;;193.97;93.97;;;;;;;;;;5115650;28;20476;-74
2022/02/17 03:03:49;;;;;;;225.73;91.23;;;;;;;;;;5115989;28;20455;-74
2022/02/17 03:06:17;;;;;;;86.13;55.67;;;;;;;;;;5107341;28;20557;-74
2022/02/17 03:08:44;;;;;;;126.73;64.53;;;;;;;;;;5115543;28;20534;-74
2022/02/17 03:11:12;;;;;;;51.30;45.50;;;;;;;;;;5096381;28;20448;-74
2022/02/17 03:13:41;;;;;;;35.13;31.97;;;;;;;;;;5123942;28;20474;-74
2022/02/17 03:16:10;;;;;;;21.83;19.63;;;;;;;;;;5104603;28;20805;-73
2022/02/17 03:18:37;;;;;;;40.63;36.83;;;;;;;;;;5121207;28;20450;-73
2022/02/17 03:21:05;;;;;;;46.27;41.70;;;;;;;;;;5120948;28;20447;-73
2022/02/17 03:23:36;;;;;;;92.83;61.40;;;;;;;;;;5122572;28;20549;-73
2022/02/17 03:26:04;;;;;;;65.47;54.27;;;;;;;;;;5122213;27;20470;-73
2022/02/17 03:28:34;;;;;;;101.70;62.03;;;;;;;;;;5122557;28;20483;-73
2022/02/17 03:31:03;;;;;;;111.10;69.40;;;;;;;;;;5112522;28;20462;-73
2022/02/17 03:33:31;;;;;;;91.23;82.40;;;;;;;;;;5122118;28;20543;-73
2022/02/17 03:35:58;;;;;;;138.57;84.90;;;;;;;;;;5122115;28;20462;-73
2022/02/17 03:38:30;;;;;;;65.20;58.70;;;;;;;;;;5118076;28;20547;-73
2022/02/17 03:40:58;;;;;;;125.07;67.37;;;;;;;;;;5121874;28;20479;-73
2022/02/17 03:43:26;;;;;;;61.50;52.63;;;;;;;;;;5121972;28;20531;-73
2022/02/17 03:45:54;;;;;;;76.63;56.30;;;;;;;;;;5123161;27;20588;-73
2022/02/17 03:48:23;;;;;;;221.60;95.10;;;;;;;;;;5122449;28;20477;-73
2022/02/17 03:50:51;;;;;;;145.37;131.87;;;;;;;;;;5119203;28;20470;-73
2022/02/17 03:53:19;;;;;;;123.60;84.13;;;;;;;;;;5106166;27;20478;-73
2022/02/17 03:55:47;;;;;;;38.43;35.00;;;;;;;;;;5117582;28;20462;-73
2022/02/17 03:59:00;;;;;;;42.33;37.93;;;;;;;;;;5118478;27;20644;-73
2022/02/17 04:01:03;;;;;;;38.47;35.50;;;;;;;;;;5101994;28;20458;-74
2022/02/17 04:03:33;;;;;;;35.10;32.47;;;;;;;;;;5102492;28;20486;-74
2022/02/17 04:06:01;;;;;;;57.53;51.73;;;;;;;;;;5119468;27;20458;-73
2022/02/17 04:08:29;;;;;;;31.97;29.03;;;;;;;;;;5123162;27;20503;-73
2022/02/17 04:10:57;;;;;;;38.80;36.10;;;;;;;;;;5121599;28;20462;-74
2022/02/17 04:13:24;;;;;;;15.83;14.50;;;;;;;;;;5123003;28;20925;-73
2022/02/17 04:15:52;;;;;;;19.93;18.20;;;;;;;;;;5123214;27;20847;-73
2022/02/17 04:18:20;;;;;;;85.17;80.17;;;;;;;;;;5100063;28;20628;-73
2022/02/17 04:20:50;;;;;;;109.70;98.73;;;;;;;;;;5112457;28;20533;-73
2022/02/17 04:23:18;;;;;;;155.07;100.90;;;;;;;;;;5102172;27;20902;-73
2022/02/17 04:25:52;;;;;;;156.80;123.90;;;;;;;;;;5109325;28;21107;-74
2022/02/17 04:28:29;;;;;;;169.77;153.20;;;;;;;;;;5115739;28;20558;-74
2022/02/17 04:31:07;;;;;;;232.13;130.43;;;;;;;;;;5118283;27;20438;-73
2022/02/17 04:33:36;;;;;;;100.03;90.77;;;;;;;;;;5116807;28;20493;-74
2022/02/17 04:36:08;;;;;;;28.90;26.70;;;;;;;;;;5118822;27;20446;-74
2022/02/17 04:38:36;;;;;;;5.67;4.80;;;;;;;;;;5119019;27;20546;-73
2022/02/17 04:43:49;;;;;;;226.77;107.57;;;;;;;;;;5118244;27;20595;-74
2022/02/17 04:46:19;;;;;;;260.00;133.50;;;;;;;;;;5115180;28;20830;-74
2022/02/17 04:48:52;;;;;;;336.57;103.37;;;;;;;;;;5118413;27;20455;-74
2022/02/17 04:51:26;;;;;;;295.43;96.30;;;;;;;;;;5119473;27;20463;-73
2022/02/17 04:53:53;;;;;;;326.20;102.80;;;;;;;;;;5116275;27;20482;-74
2022/02/17 04:56:23;;;;;;;376.73;102.33;;;;;;;;;;5118253;28;20447;-74
2022/02/17 04:58:50;;;;;;;293.73;144.20;;;;;;;;;;5119022;27;20547;-73
2022/02/17 05:01:20;;;;;;;326.63;115.50;;;;;;;;;;5118895;28;20486;-74
2022/02/17 05:03:51;;;;;;;360.17;114.10;;;;;;;;;;5119181;27;20451;-73
2022/02/17 05:06:20;;;;;;;342.83;114.37;;;;;;;;;;5118175;28;20455;-73
2022/02/17 05:08:50;;;;;;;206.17;89.30;;;;;;;;;;5118519;27;20447;-74
2022/02/17 05:11:20;;;;;;;190.57;90.00;;;;;;;;;;5118186;27;20442;-74
2022/02/17 05:13:48;;;;;;;52.40;47.40;;;;;;;;;;5115677;27;20477;-74
2022/02/17 05:16:15;;;;;;;104.00;79.87;;;;;;;;;;5115122;28;20462;-74
2022/02/17 05:18:45;;;;;;;323.93;105.93;;;;;;;;;;5099056;28;20540;-74
2022/02/17 05:21:14;;;;;;;304.47;118.00;;;;;;;;;;5117904;28;20493;-74
2022/02/17 05:23:44;;;;;;;309.73;104.23;;;;;;;;;;5117694;27;20451;-74
2022/02/17 05:26:19;;;;;;;339.37;113.03;;;;;;;;;;5115737;27;20467;-73
2022/02/17 05:28:47;;;;;;;187.57;92.20;;;;;;;;;;5104615;28;20452;-74
2022/02/17 05:31:15;;;;;;;307.83;99.03;;;;;;;;;;5112039;27;20459;-73
2022/02/17 05:33:43;;;;;;;388.13;102.10;;;;;;;;;;5115431;27;20470;-74
2022/02/17 05:36:11;;;;;;;392.93;109.03;;;;;;;;;;5109025;27;20456;-73
2022/02/17 05:38:41;;;;;;;294.37;94.60;;;;;;;;;;5089898;28;20462;-73
2022/02/17 05:41:10;;;;;;;251.90;104.70;;;;;;;;;;5115019;27;20458;-73
2022/02/17 05:43:40;;;;;;;326.70;97.40;;;;;;;;;;5117072;28;20455;-73
2022/02/17 05:46:08;;;;;;;282.93;102.93;;;;;;;;;;5115274;27;21017;-74
2022/02/17 05:48:36;;;;;;;387.40;98.47;;;;;;;;;;5113042;28;20461;-73
2022/02/17 05:51:03;;;;;;;329.57;110.80;;;;;;;;;;5117026;28;20445;-74
2022/02/17 05:53:31;;;;;;;362.63;93.43;;;;;;;;;;5117028;28;20811;-73
2022/02/17 05:55:59;;;;;;;327.57;98.47;;;;;;;;;;5113950;28;20891;-72
2022/02/17 05:58:27;;;;;;;248.87;106.23;;;;;;;;;;5116206;27;20474;-73
2022/02/17 06:00:56;;;;;;;195.03;108.63;;;;;;;;;;5115712;28;20484;-73
2022/02/17 06:03:24;;;;;;;163.00;77.73;;;;;;;;;;5100497;27;20515;-73
2022/02/17 06:05:53;;;;;;;104.20;61.77;;;;;;;;;;5108132;27;20454;-74
2022/02/17 06:08:21;;;;;;;196.37;119.83;;;;;;;;;;5116979;28;20465;-73
2022/02/17 06:10:54;;;;;;;122.67;73.80;;;;;;;;;;5111057;28;20906;-73
2022/02/17 06:13:24;;;;;;;104.40;70.47;;;;;;;;;;5103442;28;20461;-73
2022/02/17 06:15:52;;;;;;;253.33;91.27;;;;;;;;;;5111249;28;20500;-74
2022/02/17 06:18:21;;;;;;;303.03;90.50;;;;;;;;;;5105343;28;20899;-73
2022/02/17 06:20:48;;;;;;;320.23;102.13;;;;;;;;;;5114659;28;20538;-73
2022/02/17 06:23:16;;;;;;;332.20;96.43;;;;;;;;;;5113384;27;20455;-73
2022/02/17 06:25:44;;;;;;;262.63;102.10;;;;;;;;;;5115296;28;20445;-73
2022/02/17 06:28:13;;;;;;;334.07;109.00;;;;;;;;;;5116665;27;20459;-73
2022/02/17 06:30:44;;;;;;;104.40;30.55;;;;;;;;;;5113901;28;20443;-73
2022/02/17 06:33:15;;;;;;;306.97;97.30;;;;;;;;;;5115882;28;20197;-71
2022/02/17 06:35:45;;;;;;;294.97;89.07;;;;;;;;;;5113840;27;20514;-73
2022/02/17 06:38:15;;;;;;;206.87;81.10;;;;;;;;;;5115695;28;20462;-73
2022/02/17 06:40:42;;;;;;;272.77;90.97;;;;;;;;;;5116556;28;20541;-73
2022/02/17 06:43:12;;;;;;;317.73;88.60;;;;;;;;;;5115848;28;20463;-73
2022/02/17 06:45:40;;;;;;;348.47;95.17;;;;;;;;;;5115310;28;20455;-73
2022/02/17 06:48:08;;;;;;;354.93;99.20;;;;;;;;;;5109731;28;20439;-74
2022/02/17 06:50:36;;;;;;;261.83;100.13;;;;;;;;;;5112932;28;20452;-73
2022/02/17 06:53:07;;;;;;;334.33;88.70;;;;;;;;;;5114207;28;20469;-73
2022/02/17 06:55:35;;;;;;;32.27;8.10;;;;;;;;;;5113796;28;20486;-74
2022/02/17 06:58:03;;;;;;;369.50;91.27;;;;;;;;;;5103322;28;20486;-73
2022/02/17 07:00:34;;;;;;;181.53;82.57;;;;;;;;;;5093437;28;20490;-73
2022/02/17 07:03:10;;;;;;;137.97;78.53;;;;;;;;;;5108024;28;20485;-74
2022/02/17 07:05:40;;;;;;;290.13;86.63;;;;;;;;;;5116446;28;20454;-73
2022/02/17 07:08:12;;;;;;;270.00;82.23;;;;;;;;;;5115791;28;20481;-74
2022/02/17 07:10:59;;;;;;;334.73;97.17;;;;;;;;;;5132887;27;20445;-73
2022/02/17 07:13:33;;;;;;;276.60;88.53;;;;;;;;;;5114866;28;20469;-73
2022/02/17 07:16:06;;;;;;;272.17;92.68;;;;;;;;;;5113368;28;20554;-71
2022/02/17 07:18:46;;;;;;;295.50;88.67;;;;;;;;;;5115944;28;20230;-72
2022/02/17 07:21:19;;;;;;;155.27;74.40;;;;;;;;;;5100633;28;20462;-73
2022/02/17 07:23:55;;;;;;;339.23;94.23;;;;;;;;;;5120818;28;20546;-74
2022/02/17 07:26:32;;;;;;;339.73;98.97;;;;;;;;;;5113281;28;20877;-73
2022/02/17 07:29:06;;;;;;;325.93;92.37;;;;;;;;;;5116606;28;20574;-72
2022/02/17 07:31:39;;;;;;;268.73;92.77;;;;;;;;;;5113952;28;20476;-72
2022/02/17 07:34:15;;;;;;;320.23;89.37;;;;;;;;;;5102578;28;20495;-71
2022/02/17 07:36:55;;;;;;;231.73;90.20;;;;;;;;;;5092821;28;20520;-72
2022/02/17 07:39:29;;;;;;;370.50;100.53;;;;;;;;;;5114214;28;20506;-72
2022/02/17 07:41:59;;;;;;;292.57;97.37;;;;;;;;;;5112929;28;20491;-72
2022/02/17 07:47:54;;;;;;;13.23;2.50;;;;;;;;;;5101044;28;20450;-73
2022/02/17 07:50:29;;;;;;;9.90;2.53;;;;;;;;;;5093138;28;20568;-73
2022/02/17 07:53:02;;;;;;;6.40;1.50;;;;;;;;;;5095443;28;20527;-72
2022/02/17 07:55:33;;;;;;;5.57;1.63;;;;;;;;;;5112526;28;20482;-72
2022/02/17 07:58:04;;;;;;;15.13;2.80;;;;;;;;;;5111028;28;20603;-72
2022/02/17 08:00:33;;;;;;;12.03;2.60;;;;;;;;;;5115646;28;20501;-73
2022/02/17 08:03:01;;;;;;;6.63;2.47;;;;;;;;;;5116658;28;20894;-74
2022/02/17 08:05:31;;;;;;;346.10;103.53;;;;;;;;;;5118428;28;20451;-73
2022/02/17 08:08:00;;;;;;;270.73;97.53;;;;;;;;;;5119049;28;20531;-73
2022/02/17 08:10:28;;;;;;;233.20;80.60;;;;;;;;;;5118599;28;20447;-73
2022/02/17 08:12:59;;;;;;;253.17;86.20;;;;;;;;;;5116424;28;20454;-70
2022/02/17 08:15:32;;;;;;;285.97;94.50;;;;;;;;;;5117567;28;20788;-73
2022/02/17 08:18:21;;;;;;;263.43;95.80;;;;;;;;;;5115816;28;20462;-72
2022/02/17 08:20:52;;;;;;;245.50;94.37;;;;;;;;;;5118952;28;20451;-72
2022/02/17 08:23:21;;;;;;;305.30;95.60;;;;;;;;;;5110874;28;20485;-75
2022/02/17 08:25:50;;;;;;;193.80;83.50;;;;;;;;;;5118042;27;20458;-72
2022/02/17 08:28:20;;;;;;;214.47;91.77;;;;;;;;;;5119015;28;20477;-72
2022/02/17 08:30:49;;;;;;;360.77;106.73;;;;;;;;;;5099805;28;20727;-72
2022/02/17 08:33:17;;;;;;;320.42;96.15;;;;;;;;;;5105318;28;20470;-72
2022/02/17 08:35:46;;;;;;;232.87;82.17;;;;;;;;;;5118692;28;20228;-71
2022/02/17 08:38:15;;;;;;;345.03;96.30;;;;;;;;;;5117017;28;20462;-72
2022/02/17 08:40:43;;;;;;;361.33;98.67;;;;;;;;;;5119019;28;20453;-71
2022/02/17 08:43:25;;;;;;;262.17;86.93;;;;;;;;;;5117936;28;20474;-71
2022/02/17 08:46:05;;;;;;;332.93;91.23;;;;;;;;;;5112334;28;20464;-73
2022/02/17 08:48:35;;;;;;;271.03;86.20;;;;;;;;;;5109871;27;20466;-73
2022/02/17 08:51:03;;;;;;;304.03;92.67;;;;;;;;;;5116525;28;20721;-72
2022/02/17 08:53:37;;;;;;;367.87;94.47;;;;;;;;;;5116000;28;20510;-72
2022/02/17 08:56:09;;;;;;;264.77;83.57;;;;;;;;;;5113872;28;20482;-73
2022/02/17 08:58:51;;;;;;;275.33;82.10;;;;;;;;;;5114779;28;20451;-73
2022/02/17 09:01:24;;;;;;;266.70;81.50;;;;;;;;;;5097433;28;20545;-74
2022/02/17 09:03:58;;;;;;;263.70;84.50;;;;;;;;;;5118419;27;20450;-72
2022/02/17 09:06:27;;;;;;;356.47;90.77;;;;;;;;;;5117304;28;20454;-73
2022/02/17 09:08:57;;;;;;;273.47;82.47;;;;;;;;;;5115791;28;20466;-73
2022/02/17 09:11:30;;;;;;;262.37;82.40;;;;;;;;;;5113821;28;20447;-73
2022/02/17 09:14:06;;;;;;;280.93;85.80;;;;;;;;;;5118168;28;20547;-73
2022/02/17 09:16:45;;;;;;;284.70;87.33;;;;;;;;;;5102044;27;20766;-72
2022/02/17 09:19:14;;;;;;;317.83;87.10;;;;;;;;;;5117771;27;20486;-73
2022/02/17 09:21:45;;;;;;;327.67;92.77;;;;;;;;;;5117378;28;20450;-73
2022/02/17 09:24:23;;;;;;;354.57;93.30;;;;;;;;;;5117464;28;20930;-73
2022/02/17 09:27:01;;;;;;;342.45;97.35;;;;;;;;;;5117413;28;20447;-71
2022/02/17 09:29:32;;;;;;;312.67;82.60;;;;;;;;;;5110922;28;20299;-70
2022/02/17 09:32:06;;;;;;;355.10;93.27;;;;;;;;;;5117599;28;21160;-72
2022/02/17 09:34:42;;;;;;;336.30;95.73;;;;;;;;;;5117294;28;20534;-72
2022/02/17 09:37:23;;;;;;;324.20;109.68;;;;;;;;;;5117814;28;20477;-73
2022/02/17 09:40:07;;;;;;;301.30;85.90;;;;;;;;;;5115979;28;20209;-73
2022/02/17 09:42:47;;;;;;;354.00;108.30;;;;;;;;;;5104234;28;20566;-72
2022/02/17 09:45:23;;;;;;;301.63;94.03;;;;;;;;;;5100084;28;20236;-71
2022/02/17 09:47:56;;;;;;;291.60;88.07;;;;;;;;;;5113368;28;20532;-72
2022/02/17 09:50:24;;;;;;;366.17;92.23;;;;;;;;;;5098423;28;20451;-72
2022/02/17 09:53:01;;;;;;;332.73;90.30;;;;;;;;;;5116061;28;20942;-74
2022/02/17 09:55:31;;;;;;;324.37;92.60;;;;;;;;;;5115732;28;20485;-71
2022/02/17 09:58:02;;;;;;;328.67;94.30;;;;;;;;;;5116892;28;20535;-72
2022/02/17 10:00:32;;;;;;;328.33;87.30;;;;;;;;;;5117248;28;20524;-72
2022/02/17 10:03:20;;;;;;;352.85;96.03;;;;;;;;;;5114271;27;20573;-72
2022/02/17 10:06:03;;;;;;;308.50;83.17;;;;;;;;;;5115277;28;20347;-73
2022/02/17 10:08:35;;;;;;;304.53;84.77;;;;;;;;;;5116797;27;20449;-73
2022/02/17 10:11:05;;;;;;;359.30;98.83;;;;;;;;;;5135635;27;20462;-73
2022/02/17 10:13:43;;;;;;;334.57;83.93;;;;;;;;;;5104082;28;20908;-73
2022/02/17 10:16:17;;;;;;;347.40;93.70;;;;;;;;;;5115563;28;20474;-72
2022/02/17 10:25:11;;;;;;;333.37;86.40;;;;;;;;;;5100821;27;20439;-72
2022/02/17 10:27:45;;;;;;;340.27;91.90;;;;;;;;;;5114445;28;20545;-71
2022/02/17 10:30:20;;;;;;;331.80;96.27;;;;;;;;;;5113498;27;20458;-72
2022/02/17 10:33:07;;;;;;;303.87;86.10;;;;;;;;;;5116024;27;20565;-72
2022/02/17 10:35:42;;;;;;;331.73;85.37;;;;;;;;;;5106624;28;20532;-72
2022/02/17 10:38:32;;;;;;;334.20;89.13;;;;;;;;;;5111298;28;20477;-73
2022/02/17 10:41:19;;;;;;;356.37;94.60;;;;;;;;;;5112156;27;20455;-73
2022/02/17 10:43:56;;;;;;;338.53;90.57;;;;;;;;;;5114359;28;20454;-72
2022/02/17 10:46:40;;;;;;;353.30;98.87;;;;;;;;;;5106398;28;20454;-72
2022/02/17 10:49:12;;;;;;;347.57;94.47;;;;;;;;;;5113956;28;20450;-72
2022/02/17 10:51:44;;;;;;;350.90;93.23;;;;;;;;;;5096939;28;20474;-72
2022/02/17 10:54:12;;;;;;;356.27;88.27;;;;;;;;;;5109012;28;20855;-72
2022/02/17 10:56:42;;;;;;;340.00;97.68;;;;;;;;;;5113416;28;20489;-72
2022/02/17 11:00:00;;;;;;;352.27;92.40;;;;;;;;;;5113823;28;20220;-72
2022/02/17 11:02:04;;;;;;;323.33;85.47;;;;;;;;;;5114299;28;20471;-72
2022/02/17 11:04:35;;;;;;;290.23;82.80;;;;;;;;;;5114599;28;20478;-73
2022/02/17 11:07:07;;;;;;;270.07;79.20;;;;;;;;;;5111548;28;20465;-73
2022/02/17 11:09:36;;;;;;;303.47;81.77;;;;;;;;;;5113197;28;20536;-73
2022/02/17 11:12:06;;;;;;;270.63;82.30;;;;;;;;;;5112753;28;20498;-72
2022/02/17 11:15:24;;;;;;;;;;;;;;;;;;;;;
2022/02/17 11:18:01;;;;;;;348.60;88.30;;;;;;;;;;5110896;28;20465;-72
2022/02/17 11:20:29;;;;;;;333.77;90.47;;;;;;;;;;5104343;28;20458;-74
2022/02/17 11:23:00;;;;;;;320.97;86.10;;;;;;;;;;5095665;28;20460;-73
2022/02/17 11:25:38;;;;;;;327.00;84.67;;;;;;;;;;5111678;28;20870;-74
2022/02/17 11:28:24;;;;;;;301.67;85.57;;;;;;;;;;5113701;28;20443;-74
2022/02/17 11:31:02;;;;;;;313.50;80.10;;;;;;;;;;5113357;28;20541;-74
2022/02/17 11:33:30;;;;;;;342.25;81.32;;;;;;;;;;5113991;28;20446;-74
2022/02/17 11:35:59;;;;;;;338.50;78.40;;;;;;;;;;5112205;28;20728;-74
2022/02/17 11:38:30;;;;;;;255.97;71.63;;;;;;;;;;5116082;28;20204;-73
2022/02/17 11:41:16;;;;;;;260.47;73.13;;;;;;;;;;5100396;28;20463;-74
2022/02/17 11:43:51;;;;;;;259.67;77.70;;;;;;;;;;5115046;28;20561;-74
2022/02/17 11:46:41;;;;;;;252.60;71.73;;;;;;;;;;5117746;28;20461;-74
2022/02/17 11:49:10;;;;;;;252.50;75.87;;;;;;;;;;5116461;28;20747;-73
2022/02/17 11:51:40;;;;;;;233.63;73.30;;;;;;;;;;5114675;28;20458;-73
2022/02/17 11:54:21;;;;;;;237.73;76.73;;;;;;;;;;5115242;28;20945;-73
2022/02/17 11:56:58;;;;;;;235.60;70.77;;;;;;;;;;5116413;28;20482;-74
2022/02/17 11:59:32;;;;;;;275.30;77.40;;;;;;;;;;5117910;28;20519;-73
2022/02/17 12:02:03;;;;;;;309.97;83.27;;;;;;;;;;5118694;28;20965;-74
2022/02/17 12:04:38;;;;;;;290.00;80.90;;;;;;;;;;5115217;27;20878;-74
2022/02/17 12:07:10;;;;;;;295.63;81.13;;;;;;;;;;5118506;28;20537;-73
2022/02/17 12:09:47;;;;;;;253.93;77.40;;;;;;;;;;5118623;27;20539;-73
2022/02/17 12:12:34;;;;;;;283.43;84.77;;;;;;;;;;5115835;28;20436;-73
2022/02/17 12:15:05;;;;;;;289.07;83.37;;;;;;;;;;5106049;27;20485;-74
2022/02/17 12:17:35;;;;;;;281.17;80.50;;;;;;;;;;5114631;28;20750;-72
2022/02/17 12:20:04;;;;;;;285.30;80.30;;;;;;;;;;5118428;27;20537;-72
2022/02/17 12:22:36;;;;;;;280.53;77.43;;;;;;;;;;5114671;28;20799;-73
2022/02/17 12:25:16;;;;;;;280.20;81.68;;;;;;;;;;5114063;27;20509;-72
2022/02/17 12:27:50;;;;;;;269.47;76.10;;;;;;;;;;5118692;27;20254;-72
2022/02/17 12:30:34;;;;;;;256.23;73.63;;;;;;;;;;5115935;27;20830;-73
2022/02/17 12:33:06;;;;;;;268.67;75.50;;;;;;;;;;5106433;28;20450;-73
2022/02/17 12:35:39;;;;;;;253.67;72.53;;;;;;;;;;5114812;28;21204;-73
2022/02/17 12:38:10;;;;;;;313.43;86.47;;;;;;;;;;5114235;28;20577;-72
2022/02/17 12:40:38;;;;;;;262.90;76.20;;;;;;;;;;5117298;27;20470;-73
2022/02/17 12:43:09;;;;;;;288.40;83.07;;;;;;;;;;5111273;28;20454;-72
2022/02/17 12:45:45;;;;;;;280.17;83.93;;;;;;;;;;5115472;28;20489;-74
2022/02/17 12:48:25;;;;;;;248.83;75.10;;;;;;;;;;5110795;28;20759;-72
2022/02/17 12:50:52;;;;;;;263.63;80.07;;;;;;;;;;5106415;28;20782;-73
2022/02/17 12:53:25;;;;;;;266.83;82.60;;;;;;;;;;5106784;27;20451;-72
2022/02/17 12:55:54;;;;;;;286.33;83.57;;;;;;;;;;5108465;28;20547;-72
2022/02/17 12:58:35;;;;;;;327.53;91.37;;;;;;;;;;5115216;28;20529;-73
2022/02/17 13:01:07;;;;;;;290.83;87.37;;;;;;;;;;5111021;28;20629;-72
2022/02/17 13:03:43;;;;;;;349.60;94.70;;;;;;;;;;5106900;28;20456;-71
2022/02/17 13:06:19;;;;;;;353.47;88.37;;;;;;;;;;5111402;28;20450;-71
2022/02/17 13:08:53;;;;;;;354.27;90.17;;;;;;;;;;5088353;28;20463;-71
2022/02/17 13:11:23;;;;;;;349.37;87.97;;;;;;;;;;5116866;28;20456;-71
2022/02/17 13:13:51;;;;;;;351.60;87.00;;;;;;;;;;5116906;28;20469;-71
2022/02/17 13:16:21;;;;;;;307.23;87.43;;;;;;;;;;5116657;28;20482;-71
2022/02/17 13:18:48;;;;;;;312.20;82.93;;;;;;;;;;5100231;28;20460;-71
2022/02/17 13:21:20;;;;;;;308.60;86.20;;;;;;;;;;5090824;28;20463;-72
2022/02/17 13:23:49;;;;;;;300.83;82.37;;;;;;;;;;5094413;28;20463;-72
2022/02/17 13:26:31;;;;;;;303.77;87.83;;;;;;;;;;5105076;28;20481;-72
2022/02/17 13:29:00;;;;;;;290.87;83.10;;;;;;;;;;5091688;28;20559;-71
2022/02/17 13:31:35;;;;;;;265.67;86.67;;;;;;;;;;5102152;28;20735;-72
2022/02/17 13:34:16;;;;;;;283.47;84.07;;;;;;;;;;5107521;27;20538;-72
2022/02/17 13:37:08;;;;;;;256.10;81.37;;;;;;;;;;5097275;28;20519;-72
2022/02/17 13:39:44;;;;;;;255.50;78.10;;;;;;;;;;5096813;28;20558;-73
2022/02/17 13:42:14;;;;;;;307.87;85.87;;;;;;;;;;5137086;27;20556;-73
2022/02/17 13:44:46;;;;;;;266.50;76.57;;;;;;;;;;5134874;27;20472;-72
2022/02/17 13:47:17;;;;;;;340.40;89.60;;;;;;;;;;5119316;27;20558;-73
2022/02/17 13:50:07;;;;;;;312.17;86.10;;;;;;;;;;5115472;28;20490;-73
2022/02/17 13:52:36;;;;;;;301.50;84.20;;;;;;;;;;5116325;28;20869;-72
2022/02/17 13:55:26;;;;;;;308.67;85.17;;;;;;;;;;5117694;28;20490;-73
2022/02/17 13:57:58;;;;;;;310.23;83.40;;;;;;;;;;5115855;27;20989;-73
2022/02/17 14:00:35;;;;;;;346.77;95.95;;;;;;;;;;5113915;28;20465;-73
2022/02/17 14:03:25;;;;;;;306.50;83.60;;;;;;;;;;5101101;28;20303;-72
2022/02/17 14:05:54;;;;;;;298.90;103.27;;;;;;;;;;5116795;28;20557;-74
2022/02/17 14:08:36;;;;;;;282.53;87.57;;;;;;;;;;5115904;28;20443;-73
2022/02/17 14:11:04;;;;;;;300.07;84.97;;;;;;;;;;5108836;28;20482;-75
2022/02/17 14:13:33;;;;;;;291.07;80.93;;;;;;;;;;5113196;28;20867;-73
2022/02/17 14:16:00;;;;;;;310.03;86.93;;;;;;;;;;5107427;28;20459;-73
2022/02/17 14:18:44;;;;;;;308.00;85.20;;;;;;;;;;5115237;28;20454;-73
2022/02/17 14:21:25;;;;;;;296.97;81.00;;;;;;;;;;5100177;28;20455;-74
2022/02/17 14:23:59;;;;;;;334.30;90.50;;;;;;;;;;5115328;27;20454;-74
2022/02/17 14:26:29;;;;;;;340.17;92.80;;;;;;;;;;5115714;28;20285;-74
2022/02/17 14:29:03;;;;;;;297.43;79.63;;;;;;;;;;5115997;28;20780;-73
2022/02/17 14:31:44;;;;;;;301.50;90.10;;;;;;;;;;5114474;28;20454;-72
2022/02/17 14:34:17;;;;;;;292.83;85.20;;;;;;;;;;5110685;28;20509;-73
2022/02/17 14:36:48;;;;;;;305.23;88.40;;;;;;;;;;5108045;28;20490;-73
2022/02/17 14:39:25;;;;;;;308.90;83.80;;;;;;;;;;5113121;27;20835;-72
2022/02/17 14:42:00;;;;;;;312.03;85.37;;;;;;;;;;5108849;28;21025;-73
2022/02/17 14:44:29;;;;;;;321.70;85.03;;;;;;;;;;5105089;28;20461;-74
2022/02/17 14:46:57;;;;;;;304.87;81.80;;;;;;;;;;5096754;28;20632;-71
2022/02/17 14:49:38;;;;;;;332.80;86.70;;;;;;;;;;5096903;28;20475;-71